Latest Coastal Weather Observations for Esperance

IDW60701

Issued at 8:13 pm WST Sunday 28 August 2016 (issued every 10 minutes, with the page automatically refreshed every 10 minutes)

About coastal observations | Map of coastal stations | Coastal observations for WA | Marine services | Other Formats
Station Details ID: 009789 Name: ESPERANCE Lat: -33.83 Lon: 121.89 Height: 25.0 m
Data from the previous 72 hours. | See also: Recent months at Esperance
Date/Time
WST
Temp
°C
Wind Pressure Rain since
9am
mm
Weather Cloud Vis
km
Sea
Height
m
Swell
Dir  Spd
kts
Gust
kts
hPa Trend Height
m
Period
s
Dir
28/08:00pm 13.1 WSW 9 13 1003.6 - 0.8 - Partly cloudy 10 - - - -
28/07:30pm 13.0 WSW 10 15 1003.5 - 0.8 - Partly cloudy 10 - - - -
28/07:00pm 13.1 SW 10 15 1003.4 - 0.8 - Partly cloudy 10 - - - -
28/06:30pm 13.3 SW 9 13 1003.1 - 0.8 - Partly cloudy 10 - - - -
28/06:00pm 13.0 SW 10 15 1002.8 R 0.8 Recent precip. Cloudy 10 - - - -
28/05:55pm 13.0 SW 10 15 1002.7 - 0.8 - Partly cloudy 10 - - - -
28/05:37pm 13.3 SW 11 21 1002.5 - 0.8 - Partly cloudy 6 - - - -
28/05:30pm 13.9 SW 9 16 1002.3 - 0.4 - Partly cloudy 10 - - - -
28/05:00pm 14.1 SSW 10 17 1001.9 - 0.4 - Partly cloudy 10 - - - -
28/04:30pm 14.3 SSW 12 20 1001.5 - 0.4 - Partly cloudy 10 - - - -
28/04:00pm 13.7 SSW 13 20 1001.0 - 0.4 - Partly cloudy 10 - - - -
28/03:30pm 14.7 SSW 13 19 1000.4 - 0.4 - Partly cloudy 10 - - - -
28/03:00pm 13.8 SW 11 18 1000.1 R 0.4 - Mostly cloudy 10 - - - -
28/02:30pm 15.0 SSW 13 20 999.4 - 0.4 - Partly cloudy 10 - - - -
28/02:00pm 15.0 SSW 14 23 999.2 - 0.4 - Partly cloudy 10 - - - -
28/01:30pm 15.4 SSW 12 18 998.9 - 0.4 - Partly cloudy 10 - - - -
28/01:00pm 15.0 SW 11 17 998.7 - 0.4 - Partly cloudy 10 - - - -
28/12:30pm 14.3 SW 11 19 998.6 - 0.4 - Partly cloudy 10 - - - -
28/12:00pm 14.2 WSW 9 15 998.7 R 0.4 Recent precip. Mostly cloudy 10 - - - -
28/11:30am 14.2 WNW 9 13 998.6 - 0.4 - Partly cloudy 10 - - - -
28/11:25am 14.5 WNW 9 13 998.7 - 0.4 - Partly cloudy 10 - - - -
28/11:22am 13.9 WNW 9 14 998.7 - 0.4 - Partly cloudy 10 - - - -
28/11:11am 13.3 WNW 9 16 998.8 - 0.4 - Partly cloudy 7 - - - -
28/11:00am 13.9 WNW 10 16 998.8 - 0.2 - Partly cloudy 10 - - - -
28/10:31am 13.8 WNW 12 18 998.7 - 0.2 - Partly cloudy 10 - - - -
28/10:30am 13.6 WNW 13 19 998.6 - 0.2 - Partly cloudy 10 - - - -
28/10:15am 13.0 WNW 16 22 998.5 - 0.2 - Partly cloudy 10 - - - -
28/10:07am 12.0 WNW 15 21 998.5 - 0.2 - Partly cloudy 9 - - - -
28/10:00am 11.8 WNW 13 20 998.5 - 0.2 - Partly cloudy 5 - - - -
28/09:51am 12.1 WNW 13 21 998.6 - 0.2 - Partly cloudy 7 - - - -
28/09:30am 12.5 WNW 19 25 998.1 - 0.0 - Partly cloudy 10 - - - -
28/09:00am 12.0 WNW 18 25 998.0 R 3.0 - Cloudy 10 - - - -
28/08:52am 12.3 WNW 17 24 997.9 - 3.0 - Partly cloudy 10 - - - -
28/08:38am 12.0 WNW 17 28 997.7 - 3.0 - Partly cloudy 10 - - - -
28/08:30am 11.9 WNW 17 25 997.7 - 3.0 - Cloudy 10 - - - -
28/08:05am 11.5 NW 18 29 997.5 - 3.0 - Partly cloudy 10 - - - -
28/08:00am 11.7 NW 17 25 997.6 - 3.0 - Partly cloudy 10 - - - -
28/07:30am 11.2 NW 17 23 997.4 - 3.0 - Cloudy 10 - - - -
28/07:00am 11.4 NW 16 23 996.9 - 3.0 - Cloudy 10 - - - -
28/06:30am 11.0 NW 16 21 996.7 - 3.0 - Cloudy 10 - - - -
28/06:00am 11.2 NW 15 22 996.4 F 3.0 Rain Cloudy 10 - - - -
28/05:30am 11.3 NW 15 23 996.2 - 2.8 - Partly cloudy 10 - - - -
28/05:00am 11.0 NW 13 20 996.4 - 2.8 - Cloudy 10 - - - -
28/04:30am 10.9 NNW 14 19 996.2 - 2.8 - Partly cloudy 10 - - - -
28/04:00am 11.1 NNW 15 20 996.1 - 2.8 - Partly cloudy 10 - - - -
28/03:30am 11.2 NNW 16 23 996.0 - 2.8 - Partly cloudy 10 - - - -
28/03:00am 11.4 NNW 16 23 996.1 F 2.8 - Cloudy 10 - - - -
28/02:36am 11.5 NNW 17 27 996.1 - 2.8 - Partly cloudy 10 - - - -
28/02:30am 11.6 NNW 19 27 996.2 - 2.8 - Partly cloudy 10 - - - -
28/02:00am 11.9 NNW 13 19 996.3 - 2.8 - Partly cloudy 10 - - - -
28/01:30am 11.9 N 12 16 996.7 - 2.8 - Partly cloudy 10 - - - -
28/01:00am 12.1 NNW 13 19 997.0 - 2.8 - Partly cloudy 10 - - - -
28/12:30am 12.2 NNW 12 16 997.5 - 2.8 - Partly cloudy 10 - - - -
28/12:00am 11.8 NNW 10 13 997.8 F 2.8 - Mostly cloudy 10 - - - -
 
Date/Time
WST
Temp
°C
Wind Pressure Rain since
9am
mm
Weather Cloud Vis
km
Sea
Height
m
Swell
Dir  Spd
kts
Gust
kts
hPa Trend Height
m
Period
s
Dir
27/11:30pm 11.9 NNW 9 12 998.2 - 2.8 - Partly cloudy 10 - - - -
27/11:00pm 12.6 NNW 12 21 998.2 - 2.8 - Partly cloudy 10 - - - -
27/10:30pm 12.0 N 12 17 998.7 - 2.8 - Partly cloudy 10 - - - -
27/10:00pm 11.8 NNW 11 15 998.8 - 2.8 - - 10 - - - -
27/09:30pm 11.7 N 12 17 999.2 - 2.8 - Partly cloudy 10 - - - -
27/09:00pm 11.6 N 14 19 999.5 F 2.8 Rain Cloudy 10 - - - -
27/08:33pm 12.7 N 11 15 999.5 - 2.6 - Partly cloudy 10 - - - -
27/08:30pm 12.4 N 11 15 999.6 - 2.4 - Partly cloudy 10 - - - -
27/08:10pm 12.8 NW 11 18 1000.5 - 1.4 - Partly cloudy 5 - - - -
27/08:00pm 13.8 N 10 13 999.8 - 0.6 - Partly cloudy 10 - - - -
27/07:30pm 13.7 N 11 15 999.6 - 0.6 - Partly cloudy 10 - - - -
27/07:00pm 14.2 N 11 15 999.7 - 0.6 - Partly cloudy 10 - - - -
27/06:30pm 14.5 N 9 12 999.7 - 0.6 - Partly cloudy 10 - - - -
27/06:00pm 14.4 N 9 11 999.4 F 0.6 - Mostly clear 10 - - - -
27/05:30pm 14.7 N 7 8 999.4 - 0.6 - Partly cloudy 10 - - - -
27/05:00pm 15.8 N 7 8 999.4 - 0.6 - Partly cloudy 10 - - - -
27/04:30pm 16.5 NNW 6 8 999.4 - 0.6 - Partly cloudy 10 - - - -
27/04:00pm 18.0 NNW 9 11 999.4 - 0.6 - - 10 - - - -
27/03:30pm 18.0 NNW 10 14 999.5 - 0.6 - Partly cloudy 10 - - - -
27/03:00pm 17.9 NW 12 16 999.8 F 0.6 - Mostly clear 10 - - - -
27/02:30pm 17.0 NW 13 20 1000.1 - 0.6 - Partly cloudy 10 - - - -
27/02:00pm 15.6 NW 16 24 1000.0 - 0.6 - Partly cloudy 10 - - - -
27/01:33pm 15.5 NW 17 27 1000.2 - 0.4 - Partly cloudy 10 - - - -
27/01:30pm 15.5 NW 16 23 1000.3 - 0.4 - Partly cloudy 10 - - - -
27/01:00pm 14.8 NNW 10 15 1000.3 - 0.4 - Partly cloudy 10 - - - -
27/12:30pm 14.5 NNW 14 21 1000.6 - 0.2 - Partly cloudy 10 - - - -
27/12:15pm 15.5 NW 15 25 1001.2 - 0.2 - Partly cloudy 10 - - - -
27/12:00pm 15.6 NNW 11 20 1000.7 R 0.2 Recent precip. Cloudy 10 - - - -
27/11:30am 14.0 NW 10 14 1000.6 - 0.0 - Partly cloudy 10 - - - -
27/11:00am 15.0 NW 15 21 1002.2 - 0.0 - Partly cloudy 10 - - - -
27/10:30am 16.1 NW 13 19 1001.1 - 0.0 - Partly cloudy 10 - - - -
27/10:00am 16.0 NW 15 21 1001.7 - 0.0 - Partly cloudy 10 - - - -
27/09:30am 15.8 NNW 16 20 1001.6 - 0.0 - Partly cloudy 10 - - - -
27/09:00am 16.3 NNW 13 18 1001.5 F 0.0 - Cloudy 10 - - - -
27/08:30am 14.2 N 10 14 1001.7 - 0.0 - Partly cloudy 10 - - - -
27/08:00am 14.1 N 11 16 1001.5 - 0.0 - Partly cloudy 10 - - - -
27/07:30am 13.6 N 13 19 1002.2 - 0.0 - Partly cloudy 10 - - - -
27/07:00am 13.6 N 14 18 1001.8 - 0.0 - Partly cloudy 10 - - - -
27/06:30am 13.3 N 12 17 1001.9 - 0.0 - - 10 - - - -
27/06:00am 13.2 N 12 15 1002.1 F 0.0 - Cloudy 10 - - - -
27/05:30am 13.8 N 12 17 1001.9 - 0.0 - - 10 - - - -
27/05:00am 13.6 N 13 19 1001.9 - 0.0 - Partly cloudy 10 - - - -
27/04:30am 13.5 N 15 19 1002.4 - 0.0 - Partly cloudy 10 - - - -
27/04:00am 13.6 N 13 17 1002.6 - 0.0 - Partly cloudy 10 - - - -
27/03:30am 13.9 N 13 17 1002.9 - 0.0 - Partly cloudy 10 - - - -
27/03:00am 14.3 NNW 15 21 1003.7 F 0.0 - Cloudy 10 - - - -
27/02:30am 14.4 N 14 19 1003.4 - 0.0 - Partly cloudy 10 - - - -
27/02:00am 14.1 N 15 21 1003.8 - 0.0 - - 10 - - - -
27/01:30am 13.9 N 16 21 1004.1 - 0.0 - - 10 - - - -
27/01:00am 13.6 N 17 22 1004.7 - 0.0 - - 10 - - - -
27/12:30am 13.7 N 15 21 1005.4 - 0.0 - Partly cloudy 10 - - - -
27/12:00am 14.0 N 16 20 1005.9 F 0.0 - Mostly cloudy 10 - - - -
 
Date/Time
WST
Temp
°C
Wind Pressure Rain since
9am
mm
Weather Cloud Vis
km
Sea
Height
m
Swell
Dir  Spd
kts
Gust
kts
hPa Trend Height
m
Period
s
Dir
26/11:30pm 14.4 N 15 20 1006.4 - 0.0 - - 10 - - - -
26/11:00pm 14.5 N 14 20 1006.9 - 0.0 - - 10 - - - -
26/10:30pm 14.7 N 16 23 1007.3 - 0.0 - - 10 - - - -
26/10:00pm 15.0 N 17 22 1007.7 - 0.0 - - 10 - - - -
26/09:30pm 15.4 N 16 23 1008.3 - 0.0 - - 10 - - - -
26/09:00pm 15.4 N 15 22 1008.7 F 0.0 - Mostly cloudy 10 - - - -
26/08:30pm 16.0 N 17 24 1009.0 - 0.0 - - 10 - - - -
26/08:00pm 15.8 N 13 21 1009.7 - 0.0 - - 10 - - - -
26/07:30pm 15.5 N 12 15 1009.8 - 0.0 - - 10 - - - -
26/07:00pm 16.1 N 12 18 1010.1 - 0.0 - - 10 - - - -
26/06:30pm 15.5 N 11 15 1010.2 - 0.0 - - 10 - - - -
26/06:00pm 16.1 N 11 15 1010.4 F 0.0 - Cloudy 10 - - - -
26/05:30pm 17.2 N 12 16 1010.3 - 0.0 - - 10 - - - -
26/05:00pm 17.4 N 12 16 1010.3 - 0.0 - - 10 - - - -
26/04:30pm 17.5 N 13 17 1010.2 - 0.0 - - 10 - - - -
26/04:00pm 18.3 N 14 20 1010.4 - 0.0 - - 10 - - - -
26/03:30pm 18.2 N 15 20 1010.7 - 0.0 - - 10 - - - -
26/03:00pm 18.4 NNW 15 23 1011.0 F 0.0 - Cloudy 10 - - - -
26/02:30pm 19.5 NNW 17 24 1010.9 - 0.0 - - 10 - - - -
26/02:00pm 20.1 N 17 23 1011.3 - 0.0 - - 10 - - - -
26/01:30pm 19.2 N 15 21 1011.9 - 0.0 - - 10 - - - -
26/01:14pm 18.4 N 17 27 1012.2 - 0.0 - - 10 - - - -
26/01:00pm 19.0 N 18 27 1012.8 - 0.0 - - 10 - - - -
26/12:40pm 18.1 N 18 29 1012.8 - 0.0 - - 10 - - - -
26/12:30pm 18.3 N 19 27 1013.2 - 0.0 - - 10 - - - -
26/12:08pm 17.5 N 20 31 1013.5 - 0.0 - - 10 - - - -
26/12:00pm 17.5 N 20 27 1014.1 F 0.0 - Mostly cloudy 10 - - - -
26/11:41am 16.6 N 20 30 1014.5 - 0.0 - - 10 - - - -
26/11:30am 16.1 N 22 30 1015.1 - 0.0 - - 10 - - - -
26/11:00am 16.0 N 18 25 1015.9 - 0.0 - - 10 - - - -
26/10:33am 15.5 N 19 30 1016.2 - 0.0 - - 10 - - - -
26/10:30am 15.6 N 18 27 1016.5 - 0.0 - - 10 - - - -
26/10:00am 14.0 N 17 23 1017.7 - 0.0 - - 10 - - - -
26/09:37am 14.2 N 15 26 1017.7 - 0.0 - - 10 - - - -
26/09:30am 14.1 N 15 21 1018.1 - 0.0 - - 10 - - - -
26/09:00am 12.8 N 15 20 1018.7 F 0.0 - Cloudy 10 - - - -
26/08:30am 11.6 N 14 22 1019.0 - 0.0 - - 10 - - - -
26/08:00am 10.8 NNE 15 21 1018.9 - 0.0 - - 10 - - - -
26/07:30am 9.6 N 13 18 1019.6 - 0.0 - - 10 - - - -
26/07:00am 9.5 NNE 9 13 1019.7 - 0.0 - - 10 - - - -
26/06:30am 8.6 NNE 8 12 1019.8 - 0.0 - - 10 - - - -
26/06:00am 8.7 NNE 10 14 1020.1 F 0.0 - Mostly clear 10 - - - -
26/05:30am 8.7 NNE 9 11 1020.8 - 0.0 - - 10 - - - -
26/05:00am 8.8 NNE 10 15 1020.7 - 0.0 - - 10 - - - -
26/04:30am 8.2 NE 8 10 1020.9 - 0.0 - - 10 - - - -
26/04:00am 8.2 NNE 7 10 1021.2 - 0.0 - - 10 - - - -
26/03:30am 8.2 NNE 8 12 1021.4 - 0.0 - - 10 - - - -
26/03:00am 8.3 N 9 12 1021.9 F 0.0 - - 10 - - - -
26/02:30am 8.7 NNE 8 12 1021.9 - 0.0 - - 10 - - - -
26/02:00am 8.9 NNE 9 13 1022.4 - 0.0 - - 10 - - - -
26/01:30am 9.2 NNE 8 11 1022.9 - 0.0 - - 10 - - - -
26/01:00am 9.4 NNE 9 12 1023.0 - 0.0 - - 10 - - - -
26/12:30am 9.7 NNE 9 12 1023.2 - 0.0 - Partly cloudy 10 - - - -
26/12:00am 9.9 NNE 9 13 1023.7 F 0.0 - Partly cloudy 10 - - - -
 
Date/Time
WST
Temp
°C
Wind Pressure Rain since
9am
mm
Weather Cloud Vis
km
Sea
Height
m
Swell
Dir  Spd
kts
Gust
kts
hPa Trend Height
m
Period
s
Dir
25/11:30pm 9.7 NE 9 12 1023.9 - 0.0 - Partly cloudy 10 - - - -
25/11:00pm 9.6 NE 9 12 1023.8 - 0.0 - - 10 - - - -
25/10:30pm 9.8 NE 7 12 1023.9 - 0.0 - Partly cloudy 10 - - - -
25/10:00pm 9.9 NE 8 13 1024.0 - 0.0 - - 10 - - - -
25/09:30pm 10.1 NE 8 13 1024.2 - 0.0 - - 10 - - - -
25/09:00pm 10.4 ENE 7 12 1024.6 F 0.0 - Mostly clear 10 - - - -
25/08:30pm 10.4 ENE 6 10 1024.9 - 0.0 - Partly cloudy 10 - - - -

Other Formats:

Comma delimited format used in spreadsheet applications
http://www.bom.gov.au/fwo/IDW60701/IDW60701.94638.axf

JavaScript Object Notation format (JSON) in row-major order
http://www.bom.gov.au/fwo/IDW60701/IDW60701.94638.json